Berclair, Texas
Current Conditions -  °F | °C
As of 8:15 PM on Friday 19 Dec 2014 (Local Time) from KBEA Reporting Station
Overcast Overcast  
Wind Chill: 58°   Ceiling: 1900
Heat Index: 58°   Visibility: 10mi
Dew Point: 53°   Wind: 10mph
Humidity: 82%   Direction: 20°NNE
Pressure: 30.11"   Gusts: NA
Location:  28.53°N, 97.59°W
Report Text: KBEA 200215Z AUTO 02009KT 10SM OVC019 15/12 A3011 RMK AO2 T01450115
Loading
Personal Weather Stations






























Interactive Weather Map New forecast layout! Learn more

10-Day Weather Forecast

Advertisements
Track Severe Weather on mobile